Time;durP1;ratioP1;P1;durP2;ratioP2;P2;SDS_P1;SDS_P2;PMS_P1;PMS_P2;Temp;Humidity;BMP_temperature;BMP_pressure;BME280_temperature;BME280_humidity;BME280_pressure;Samples;Min_cycle;Max_cycle;Signal;HPM_P1;HPM_P2
2023/06/22 00:00:08;;;;;;;9.23;4.60;;;21.10;99.90;;;;;;5034041;28;20950;-79
2023/06/22 00:02:34;;;;;;;5.30;3.93;;;21.10;99.90;;;;;;5034218;28;20514;-79
2023/06/22 00:05:01;;;;;;;5.87;3.50;;;21.10;99.90;;;;;;5033923;28;20933;-79
2023/06/22 00:07:28;;;;;;;6.33;3.60;;;21.00;99.90;;;;;;5034117;28;20469;-79
2023/06/22 00:09:55;;;;;;;8.57;3.77;;;21.00;99.90;;;;;;5034158;28;20454;-80
2023/06/22 00:12:23;;;;;;;4.77;3.47;;;21.00;99.90;;;;;;5034031;28;20473;-79
2023/06/22 00:14:49;;;;;;;4.70;4.20;;;21.00;99.90;;;;;;5033661;28;20452;-79
2023/06/22 00:17:16;;;;;;;7.00;4.00;;;20.90;99.90;;;;;;5033966;28;20483;-80
2023/06/22 00:19:43;;;;;;;15.43;4.17;;;21.00;99.90;;;;;;5033966;28;20446;-79
2023/06/22 00:22:10;;;;;;;8.00;3.37;;;20.90;99.90;;;;;;5033491;28;20834;-79
2023/06/22 00:24:36;;;;;;;17.13;4.60;;;20.90;99.90;;;;;;5033563;28;20823;-80
2023/06/22 00:27:05;;;;;;;6.33;3.37;;;20.90;99.90;;;;;;5033515;28;20492;-80
2023/06/22 00:29:33;;;;;;;11.20;3.47;;;20.90;99.90;;;;;;5033887;28;20439;-79
2023/06/22 00:31:59;;;;;;;6.50;3.90;;;20.90;99.90;;;;;;5033711;28;20495;-80
2023/06/22 00:34:26;;;;;;;8.10;3.90;;;20.80;99.90;;;;;;5033742;28;20446;-80
2023/06/22 00:36:53;;;;;;;4.60;3.30;;;20.80;99.90;;;;;;5033304;28;20474;-79
2023/06/22 00:39:19;;;;;;;3.63;3.33;;;20.80;99.90;;;;;;5034175;28;20457;-80
2023/06/22 00:41:46;;;;;;;5.00;3.30;;;20.80;99.90;;;;;;5033629;28;20447;-80
2023/06/22 00:44:13;;;;;;;4.53;3.20;;;20.80;99.90;;;;;;5033577;28;20451;-80
2023/06/22 00:46:41;;;;;;;7.50;4.07;;;20.80;99.90;;;;;;5033470;28;20524;-80
2023/06/22 00:49:08;;;;;;;8.27;3.50;;;20.80;99.90;;;;;;5033519;28;20461;-80
2023/06/22 00:51:37;;;;;;;5.33;3.30;;;20.80;99.90;;;;;;5033470;28;20454;-80
2023/06/22 00:54:06;;;;;;;4.27;3.13;;;20.80;99.90;;;;;;5033407;28;20494;-80
2023/06/22 00:56:36;;;;;;;4.90;3.90;;;20.70;99.90;;;;;;5033050;28;20454;-80
2023/06/22 00:59:03;;;;;;;6.13;3.50;;;20.70;99.90;;;;;;5033100;28;20441;-80
2023/06/22 01:01:30;;;;;;;4.83;3.73;;;20.70;99.90;;;;;;5033374;28;20532;-80
2023/06/22 01:03:58;;;;;;;3.40;3.10;;;20.70;99.90;;;;;;5033024;28;20942;-80
2023/06/22 01:06:39;;;;;;;6.03;3.60;;;20.70;99.90;;;;;;5033317;28;20453;-79
2023/06/22 01:09:15;;;;;;;5.03;3.30;;;20.60;99.90;;;;;;5033395;28;20441;-79
2023/06/22 01:11:46;;;;;;;5.30;2.90;;;20.60;99.90;;;;;;5033047;28;20972;-79
2023/06/22 01:14:20;;;;;;;6.10;4.00;;;20.60;99.90;;;;;;5033111;28;20774;-79
2023/06/22 01:16:49;;;;;;;3.53;3.00;;;20.50;99.90;;;;;;5033196;28;20430;-80
2023/06/22 01:19:34;;;;;;;4.20;3.40;;;20.50;99.90;;;;;;5033750;28;20446;-80
2023/06/22 01:22:03;;;;;;;5.03;3.70;;;20.50;99.90;;;;;;5032949;28;20437;-79
2023/06/22 01:24:40;;;;;;;7.30;3.90;;;20.40;99.90;;;;;;5033197;28;20530;-80
2023/06/22 01:27:14;;;;;;;4.37;3.63;;;20.40;99.90;;;;;;5035385;28;20900;-80
2023/06/22 01:29:43;;;;;;;8.60;4.73;;;20.30;99.90;;;;;;5037262;28;20406;-80
2023/06/22 01:32:12;;;;;;;6.37;4.03;;;20.30;99.90;;;;;;5037047;28;20458;-80
2023/06/22 01:34:40;;;;;;;4.53;3.97;;;20.30;99.90;;;;;;5036778;28;20992;-80
2023/06/22 01:37:08;;;;;;;3.93;2.70;;;20.30;99.90;;;;;;5036970;28;20496;-79
2023/06/22 01:39:35;;;;;;;5.03;3.77;;;20.30;99.90;;;;;;5036992;28;20449;-79
2023/06/22 01:42:05;;;;;;;3.87;3.43;;;20.30;99.90;;;;;;5036932;28;20454;-79
2023/06/22 01:44:32;;;;;;;5.00;3.57;;;20.30;99.90;;;;;;5036887;28;20446;-79
2023/06/22 01:47:00;;;;;;;6.80;3.77;;;20.30;99.90;;;;;;5036741;28;20474;-80
2023/06/22 01:49:28;;;;;;;5.47;3.90;;;20.30;99.90;;;;;;5036787;28;20450;-79
2023/06/22 01:51:55;;;;;;;5.97;3.30;;;20.30;99.90;;;;;;5036737;28;20454;-80
2023/06/22 01:54:21;;;;;;;5.87;3.67;;;20.30;99.90;;;;;;5036684;28;20509;-80
2023/06/22 01:56:48;;;;;;;4.37;3.60;;;20.30;99.90;;;;;;5036563;28;20450;-80
2023/06/22 01:59:25;;;;;;;4.20;3.60;;;20.30;99.90;;;;;;5036611;28;20450;-80
2023/06/22 02:01:58;;;;;;;6.27;4.07;;;20.30;99.90;;;;;;5037375;28;20437;-80
2023/06/22 02:04:28;;;;;;;8.40;4.17;;;20.30;99.90;;;;;;5036567;28;20434;-80
2023/06/22 02:06:59;;;;;;;7.10;3.63;;;20.30;99.90;;;;;;5036470;28;20477;-79
2023/06/22 02:09:29;;;;;;;5.50;3.30;;;20.30;99.90;;;;;;5036151;28;20440;-79
2023/06/22 02:11:57;;;;;;;4.00;3.13;;;20.30;99.90;;;;;;5036112;28;20906;-80
2023/06/22 02:14:25;;;;;;;5.70;3.47;;;20.30;99.90;;;;;;5035940;28;21026;-80
2023/06/22 02:16:52;;;;;;;4.90;3.40;;;20.30;99.90;;;;;;5036251;28;20466;-80
2023/06/22 02:19:24;;;;;;;3.03;2.50;;;20.30;99.90;;;;;;5036233;28;20446;-80
2023/06/22 02:21:52;;;;;;;4.13;2.80;;;20.30;99.90;;;;;;5035961;28;20557;-79
2023/06/22 02:24:19;;;;;;;7.40;3.23;;;20.20;99.90;;;;;;5036170;28;20438;-80
2023/06/22 02:26:46;;;;;;;4.40;3.00;;;20.20;99.90;;;;;;5035835;28;20477;-80
2023/06/22 02:29:13;;;;;;;5.50;2.90;;;20.20;99.90;;;;;;5036188;28;20508;-80
2023/06/22 02:31:39;;;;;;;4.33;3.20;;;20.10;99.90;;;;;;5035993;28;20446;-80
2023/06/22 02:34:06;;;;;;;4.00;3.03;;;20.10;99.90;;;;;;5035946;28;20500;-80
2023/06/22 02:36:33;;;;;;;3.30;2.83;;;20.10;99.90;;;;;;5035576;28;20455;-80
2023/06/22 02:39:03;;;;;;;3.17;2.90;;;20.10;99.90;;;;;;5035515;28;20457;-80
2023/06/22 02:41:30;;;;;;;4.00;3.47;;;20.00;99.90;;;;;;5035853;28;20446;-80
2023/06/22 02:43:57;;;;;;;9.20;4.70;;;20.00;99.90;;;;;;5035825;28;20442;-80
2023/06/22 02:46:23;;;;;;;6.13;3.40;;;20.00;99.90;;;;;;5035729;28;20450;-80
2023/06/22 02:48:50;;;;;;;5.80;3.13;;;20.00;99.90;;;;;;5035665;28;20470;-80
2023/06/22 02:51:17;;;;;;;6.43;3.30;;;20.00;99.90;;;;;;5035359;28;20934;-79
2023/06/22 02:53:44;;;;;;;4.17;2.63;;;20.00;99.90;;;;;;5035553;28;20485;-79
2023/06/22 02:56:12;;;;;;;4.53;2.97;;;20.00;99.90;;;;;;5035266;28;20450;-80
2023/06/22 02:58:39;;;;;;;5.00;2.93;;;20.00;99.90;;;;;;5035457;28;20497;-79
2023/06/22 03:01:06;;;;;;;8.80;3.93;;;20.00;99.90;;;;;;5035454;28;20541;-80
2023/06/22 03:03:33;;;;;;;5.30;3.20;;;20.00;99.90;;;;;;5035494;28;20446;-80
2023/06/22 03:06:00;;;;;;;4.20;2.87;;;20.10;99.90;;;;;;5035395;28;20479;-80
2023/06/22 03:08:27;;;;;;;3.77;2.20;;;20.10;99.90;;;;;;5035277;28;20830;-80
2023/06/22 03:10:54;;;;;;;7.60;4.33;;;20.10;99.90;;;;;;5035356;28;20451;-79
2023/06/22 03:13:22;;;;;;;5.40;3.63;;;20.00;99.90;;;;;;5035165;28;20500;-80
2023/06/22 03:15:49;;;;;;;3.43;3.03;;;20.00;99.90;;;;;;5035231;28;20446;-80
2023/06/22 03:18:16;;;;;;;3.13;2.83;;;20.00;99.90;;;;;;5034784;28;20996;-80
2023/06/22 03:20:43;;;;;;;4.33;2.07;;;19.90;99.90;;;;;;5035652;28;20461;-80
2023/06/22 03:23:09;;;;;;;5.70;3.67;;;19.90;99.90;;;;;;5034719;28;20942;-79
2023/06/22 03:25:36;;;;;;;4.90;2.80;;;19.90;99.90;;;;;;5034860;28;20461;-80
2023/06/22 03:28:03;;;;;;;3.63;2.43;;;19.80;99.90;;;;;;5034562;28;20537;-80
2023/06/22 03:30:31;;;;;;;3.50;2.63;;;19.80;99.90;;;;;;5034857;28;20446;-79
2023/06/22 03:32:58;;;;;;;5.33;3.10;;;19.80;99.90;;;;;;5034475;28;20473;-80
2023/06/22 03:35:25;;;;;;;5.20;3.50;;;19.80;99.90;;;;;;5034765;28;20451;-80
2023/06/22 03:37:51;;;;;;;5.83;3.27;;;19.70;99.90;;;;;;5034717;28;20462;-80
2023/06/22 03:40:18;;;;;;;4.40;3.17;;;19.70;99.90;;;;;;5034735;28;20874;-80
2023/06/22 03:42:45;;;;;;;5.27;3.03;;;19.70;99.90;;;;;;5034565;28;20442;-80
2023/06/22 03:45:12;;;;;;;4.60;2.83;;;19.70;99.90;;;;;;5034304;28;20454;-80
2023/06/22 03:47:40;;;;;;;9.77;4.20;;;19.70;99.90;;;;;;5034473;28;20474;-80
2023/06/22 03:50:07;;;;;;;7.27;3.43;;;19.70;99.90;;;;;;5033817;28;20451;-80
2023/06/22 03:52:34;;;;;;;4.43;3.20;;;19.70;99.90;;;;;;5034462;28;20516;-80
2023/06/22 03:55:01;;;;;;;4.97;3.47;;;19.70;99.90;;;;;;5034361;28;20572;-79
2023/06/22 03:57:28;;;;;;;7.63;3.37;;;19.60;99.90;;;;;;5034195;28;20841;-80
2023/06/22 03:59:57;;;;;;;3.40;3.10;;;19.70;99.90;;;;;;5034064;28;20942;-79
2023/06/22 04:02:24;;;;;;;4.40;3.10;;;19.60;99.90;;;;;;5034282;28;20451;-80
2023/06/22 04:04:52;;;;;;;7.30;3.80;;;19.70;99.90;;;;;;5034209;28;20880;-80
2023/06/22 04:07:19;;;;;;;5.07;3.33;;;19.70;99.90;;;;;;5034108;28;20466;-80
2023/06/22 04:09:45;;;;;;;4.03;2.93;;;19.70;99.90;;;;;;5034174;28;20450;-79
2023/06/22 04:12:12;;;;;;;6.73;4.43;;;19.80;99.90;;;;;;5033766;28;20946;-80
2023/06/22 04:14:39;;;;;;;5.17;3.63;;;19.80;99.90;;;;;;5033997;28;20485;-80
2023/06/22 04:17:06;;;;;;;10.10;4.10;;;19.80;99.90;;;;;;5033932;28;20489;-80
2023/06/22 04:19:33;;;;;;;6.70;4.47;;;19.90;99.90;;;;;;5033670;28;20446;-80
2023/06/22 04:22:01;;;;;;;9.33;3.60;;;20.00;99.90;;;;;;5033971;28;20442;-80
2023/06/22 04:24:27;;;;;;;5.90;3.60;;;20.00;99.90;;;;;;5033686;28;20461;-79
2023/06/22 04:26:54;;;;;;;5.73;4.10;;;20.10;99.90;;;;;;5033616;28;20485;-80
2023/06/22 04:29:28;;;;;;;5.13;2.93;;;20.10;99.90;;;;;;5033584;28;20438;-80
2023/06/22 04:31:57;;;;;;;3.77;3.40;;;20.10;99.90;;;;;;5033550;28;20430;-80
2023/06/22 04:34:26;;;;;;;5.10;3.47;;;20.20;99.90;;;;;;5033486;28;20903;-80
2023/06/22 04:36:53;;;;;;;4.17;2.80;;;20.30;99.90;;;;;;5033374;28;20475;-79
2023/06/22 04:39:21;;;;;;;4.63;3.17;;;20.30;99.90;;;;;;5033669;28;20483;-80
2023/06/22 04:41:48;;;;;;;7.57;3.87;;;20.30;99.90;;;;;;5033360;28;20438;-79
2023/06/22 04:44:23;;;;;;;9.53;3.07;;;20.40;99.90;;;;;;5033590;28;20448;-80
2023/06/22 04:46:53;;;;;;;3.83;3.53;;;20.50;99.90;;;;;;5033710;28;20437;-80
2023/06/22 04:49:21;;;;;;;4.97;3.27;;;20.50;99.90;;;;;;5034316;28;20548;-79
2023/06/22 04:51:49;;;;;;;6.77;4.20;;;20.60;99.90;;;;;;5033514;28;20442;-79
2023/06/22 04:54:16;;;;;;;4.93;3.33;;;20.70;99.90;;;;;;5033076;28;20985;-79
2023/06/22 04:56:46;;;;;;;6.97;2.67;;;20.70;99.90;;;;;;5033365;28;20461;-79
2023/06/22 04:59:13;;;;;;;5.30;3.20;;;20.80;99.90;;;;;;5033440;28;20450;-79
2023/06/22 05:01:40;;;;;;;6.30;3.10;;;21.10;99.90;;;;;;5033356;28;20450;-79
2023/06/22 05:04:07;;;;;;;6.07;3.57;;;20.90;99.90;;;;;;5033342;28;20445;-79
2023/06/22 05:06:34;;;;;;;4.50;3.63;;;21.00;99.90;;;;;;5033279;28;20461;-79
2023/06/22 05:09:01;;;;;;;2.57;2.30;;;21.00;99.90;;;;;;5033315;28;20450;-79
2023/06/22 05:11:28;;;;;;;7.10;3.80;;;21.10;99.90;;;;;;5032982;28;20820;-79
2023/06/22 05:13:57;;;;;;;5.10;3.07;;;21.20;99.90;;;;;;5033162;28;20493;-80
2023/06/22 05:16:24;;;;;;;3.53;3.23;;;21.30;99.90;;;;;;5033238;28;20448;-80
2023/06/22 05:18:53;;;;;;;3.70;2.40;;;21.50;99.90;;;;;;5033103;28;20477;-80
2023/06/22 05:21:22;;;;;;;4.17;2.30;;;21.50;99.90;;;;;;5033213;28;20438;-80
2023/06/22 05:23:48;;;;;;;6.20;3.10;;;21.70;99.90;;;;;;5033960;28;20442;-79
2023/06/22 05:26:15;;;;;;;3.67;2.50;;;21.70;99.90;;;;;;5033141;28;20446;-80
2023/06/22 05:28:45;;;;;;;3.80;3.20;;;21.90;99.90;;;;;;5032670;28;20489;-81
2023/06/22 05:31:14;;;;;;;4.00;2.80;;;22.00;99.90;;;;;;5033191;28;20434;-80
2023/06/22 05:33:41;;;;;;;4.33;2.73;;;22.10;99.90;;;;;;5033011;28;20531;-80
2023/06/22 05:36:08;;;;;;;3.50;2.63;;;22.20;99.90;;;;;;5033035;28;20454;-79
2023/06/22 05:38:35;;;;;;;5.23;2.73;;;22.30;99.90;;;;;;5032982;28;20830;-81
2023/06/22 05:41:02;;;;;;;5.93;2.70;;;22.30;99.90;;;;;;5033038;28;20449;-80
2023/06/22 05:43:29;;;;;;;4.43;2.27;;;22.30;99.90;;;;;;5032706;28;20965;-80
2023/06/22 05:45:56;;;;;;;4.87;2.50;;;22.30;99.90;;;;;;5032949;28;20454;-80
2023/06/22 05:48:24;;;;;;;3.93;2.90;;;22.30;99.90;;;;;;5032884;28;20466;-80
2023/06/22 05:50:51;;;;;;;4.70;2.80;;;22.30;99.90;;;;;;5032857;28;20453;-80
2023/06/22 05:53:18;;;;;;;2.60;1.87;;;22.40;99.90;;;;;;5032829;28;20446;-82
2023/06/22 05:55:44;;;;;;;3.20;2.07;;;22.40;99.90;;;;;;5033153;28;20446;-80
2023/06/22 05:58:13;;;;;;;4.20;2.70;;;22.40;99.90;;;;;;5032793;28;20489;-81
2023/06/22 06:00:39;;;;;;;3.87;2.37;;;22.30;99.90;;;;;;5032822;28;20431;-81
2023/06/22 06:03:07;;;;;;;3.00;1.90;;;22.30;99.90;;;;;;5032838;28;20450;-82
2023/06/22 06:05:36;;;;;;;3.43;2.93;;;22.30;99.90;;;;;;5032809;28;20453;-82
2023/06/22 06:08:05;;;;;;;3.00;1.60;;;22.40;99.90;;;;;;5032682;28;20470;-81
2023/06/22 06:10:32;;;;;;;2.10;1.90;;;22.50;99.90;;;;;;5032748;28;20504;-81
2023/06/22 06:13:01;;;;;;;3.00;2.33;;;22.70;99.90;;;;;;5034463;28;20957;-81
2023/06/22 06:15:28;;;;;;;4.27;3.10;;;22.80;99.90;;;;;;5036261;28;20918;-81
2023/06/22 06:17:55;;;;;;;5.30;2.50;;;23.00;99.90;;;;;;5036136;28;20230;-81
2023/06/22 06:20:23;;;;;;;3.10;2.00;;;23.30;99.90;;;;;;5036277;28;20184;-79
2023/06/22 06:22:51;;;;;;;2.50;1.90;;;23.50;99.90;;;;;;5036177;28;20210;-80
2023/06/22 06:25:21;;;;;;;2.53;2.25;;;23.70;99.90;;;;;;5035788;28;20202;-80
2023/06/22 06:27:48;;;;;;;2.97;2.30;;;24.00;99.90;;;;;;5035547;28;20239;-81
2023/06/22 06:30:17;;;;;;;3.13;2.35;;;24.30;99.90;;;;;;5036039;28;20199;-80
2023/06/22 06:32:46;;;;;;;2.15;1.73;;;24.50;99.90;;;;;;5035942;28;20211;-81
2023/06/22 06:35:14;;;;;;;3.20;1.77;;;24.80;99.90;;;;;;5035674;28;20239;-81
2023/06/22 06:37:43;;;;;;;2.00;1.35;;;25.10;99.90;;;;;;5035888;28;20224;-81
2023/06/22 06:40:12;;;;;;;1.80;1.45;;;25.30;99.90;;;;;;5035791;28;20200;-81
2023/06/22 06:42:41;;;;;;;2.05;1.65;;;25.50;99.90;;;;;;5035790;28;20211;-81
2023/06/22 06:45:09;;;;;;;2.00;1.63;;;25.90;99.90;;;;;;5035747;28;20204;-81
2023/06/22 06:47:36;;;;;;;2.55;1.70;;;26.10;99.90;;;;;;5035442;28;20212;-82
2023/06/22 06:50:03;;;;;;;5.15;2.00;;;26.20;99.90;;;;;;5035701;28;20214;-82
2023/06/22 06:52:30;;;;;;;2.22;2.03;;;26.30;99.90;;;;;;5035656;28;20588;-81
2023/06/22 06:54:56;;;;;;;2.45;1.85;;;26.30;99.90;;;;;;5035551;28;20219;-81
2023/06/22 06:57:28;;;;;;;1.50;1.40;;;26.20;99.90;;;;;;5035543;28;20231;-82
2023/06/22 06:59:55;;;;;;;2.05;1.50;;;26.30;99.90;;;;;;5035556;28;20286;-82
2023/06/22 07:02:22;;;;;;;2.72;1.98;;;26.30;99.90;;;;;;5035465;28;20226;-81
2023/06/22 07:04:49;;;;;;;2.78;2.58;;;26.20;99.90;;;;;;5035091;28;20196;-81
2023/06/22 07:07:17;;;;;;;1.92;1.70;;;26.30;99.90;;;;;;5035000;28;20711;-82
2023/06/22 07:09:44;;;;;;;3.25;1.98;;;26.30;99.90;;;;;;5035358;28;20191;-82
2023/06/22 07:12:11;;;;;;;2.50;1.77;;;26.40;99.90;;;;;;5035281;28;20206;-81
2023/06/22 07:14:39;;;;;;;3.80;1.52;;;26.40;99.90;;;;;;5035137;28;20227;-81
2023/06/22 07:17:06;;;;;;;2.42;1.48;;;26.40;99.90;;;;;;5035077;28;20227;-81
2023/06/22 07:19:34;;;;;;;2.10;1.80;;;26.50;99.90;;;;;;5035083;28;20207;-81
2023/06/22 07:22:01;;;;;;;3.63;1.90;;;26.50;99.90;;;;;;5034768;28;20671;-81
2023/06/22 07:24:28;;;;;;;2.55;1.92;;;26.60;99.90;;;;;;5033957;28;20199;-82
2023/06/22 07:26:55;;;;;;;2.28;2.08;;;26.60;99.90;;;;;;5034696;28;20578;-82
2023/06/22 07:29:21;;;;;;;2.33;1.70;;;26.60;99.90;;;;;;5035074;28;20650;-81
2023/06/22 07:31:51;;;;;;;2.42;1.58;;;26.70;99.90;;;;;;5035378;28;20215;-81
2023/06/22 07:34:18;;;;;;;2.08;1.63;;;26.80;99.90;;;;;;5034787;28;20219;-82
2023/06/22 07:36:45;;;;;;;1.83;1.48;;;26.80;99.90;;;;;;5034758;28;20222;-83
2023/06/22 07:39:12;;;;;;;1.88;1.67;;;27.10;99.90;;;;;;5034461;28;20208;-82
2023/06/22 07:41:40;;;;;;;2.17;1.90;;;27.20;99.90;;;;;;5035272;28;20563;-82
2023/06/22 07:44:07;;;;;;;1.90;1.80;;;27.30;99.90;;;;;;5034681;28;20253;-82
2023/06/22 07:46:34;;;;;;;3.78;1.90;;;27.40;99.90;;;;;;5034561;28;20203;-82
2023/06/22 07:49:03;;;;;;;4.75;1.70;;;27.50;99.90;;;;;;5034391;28;20199;-82
2023/06/22 07:51:30;;;;;;;2.10;1.30;;;27.60;99.90;;;;;;5034278;28;20203;-81
2023/06/22 07:53:56;;;;;;;1.85;1.75;;;27.50;99.90;;;;;;5034127;28;20203;-81
2023/06/22 07:56:23;;;;;;;4.03;2.10;;;27.40;99.90;;;;;;5034403;28;20215;-82
2023/06/22 07:58:50;;;;;;;4.60;1.60;;;27.60;99.90;;;;;;5034352;28;20226;-82
2023/06/22 08:01:19;;;;;;;2.38;2.28;;;27.80;99.90;;;;;;5034401;28;20293;-82
2023/06/22 08:03:46;;;;;;;4.00;1.92;;;28.10;99.90;;;;;;5034300;28;20203;-82
2023/06/22 08:06:14;;;;;;;1.95;1.42;;;28.20;99.90;;;;;;5033973;28;20211;-82
2023/06/22 08:08:42;;;;;;;1.67;1.58;;;28.40;99.90;;;;;;5034107;28;20225;-83
2023/06/22 08:11:09;;;;;;;2.28;2.03;;;28.80;99.90;;;;;;5034183;28;20242;-82
2023/06/22 08:13:36;;;;;;;1.80;1.70;;;28.90;99.90;;;;;;5033849;28;20676;-81
2023/06/22 08:16:03;;;;;;;4.05;2.15;;;28.90;99.90;;;;;;5033653;28;20599;-81
2023/06/22 08:18:30;;;;;;;4.55;1.70;;;29.00;99.90;;;;;;5034094;28;20251;-81
2023/06/22 08:20:56;;;;;;;6.68;1.98;;;29.00;99.90;;;;;;5033668;28;20215;-81
2023/06/22 08:23:25;;;;;;;1.30;1.20;;;28.90;99.90;;;;;;5033994;28;20193;-81
2023/06/22 08:25:51;;;;;;;2.45;1.55;;;28.70;99.90;;;;;;5033888;28;20229;-81
2023/06/22 08:28:18;;;;;;;3.33;2.05;;;28.70;99.90;;;;;;5033413;28;20237;-81
2023/06/22 08:30:45;;;;;;;2.08;1.98;;;28.90;99.90;;;;;;5033919;28;20211;-81
2023/06/22 08:33:12;;;;;;;4.35;1.85;;;28.90;99.90;;;;;;5033459;28;20214;-80
2023/06/22 08:35:39;;;;;;;1.65;1.52;;;28.80;99.90;;;;;;5033334;28;20239;-81
2023/06/22 08:38:06;;;;;;;2.40;1.63;;;28.50;99.90;;;;;;5033360;28;20710;-81
2023/06/22 08:40:34;;;;;;;5.53;2.00;;;28.60;99.90;;;;;;5033737;28;20197;-81
2023/06/22 08:43:00;;;;;;;2.25;1.98;;;28.60;99.90;;;;;;5033645;28;20572;-81
2023/06/22 08:45:27;;;;;;;1.70;1.60;;;28.40;99.90;;;;;;5033639;28;20208;-81
2023/06/22 08:47:54;;;;;;;3.17;1.75;;;28.00;99.90;;;;;;5033182;28;20591;-81
2023/06/22 08:50:21;;;;;;;2.00;1.90;;;28.00;99.90;;;;;;5033524;28;20212;-81
2023/06/22 08:52:47;;;;;;;1.75;1.52;;;28.00;99.90;;;;;;5033569;28;20287;-81
2023/06/22 08:55:14;;;;;;;1.88;1.63;;;28.10;99.90;;;;;;5033223;28;20766;-80
2023/06/22 08:57:43;;;;;;;1.60;1.50;;;28.60;99.90;;;;;;5033392;28;20227;-81
2023/06/22 09:00:18;;;;;;;2.70;1.98;;;29.30;99.90;;;;;;5033130;28;20675;-81
2023/06/22 09:02:44;;;;;;;5.53;2.17;;;29.40;99.90;;;;;;5033405;28;20196;-80
2023/06/22 09:05:11;;;;;;;1.55;1.45;;;29.20;99.90;;;;;;5033341;28;20218;-81
2023/06/22 09:07:38;;;;;;;3.05;1.58;;;29.00;99.90;;;;;;5032921;28;20741;-81
2023/06/22 09:10:06;;;;;;;1.80;1.70;;;29.00;99.90;;;;;;5032989;28;20199;-81
2023/06/22 09:12:33;;;;;;;3.90;1.65;;;28.90;99.90;;;;;;5033265;28;20207;-81
2023/06/22 09:15:02;;;;;;;1.70;1.55;;;29.10;99.90;;;;;;5033180;28;20258;-81
2023/06/22 09:17:29;;;;;;;1.63;1.52;;;29.20;99.90;;;;;;5033206;28;20319;-81
2023/06/22 09:19:56;;;;;;;2.28;1.60;;;29.40;99.90;;;;;;5033271;28;20191;-81
2023/06/22 09:22:22;;;;;;;2.55;1.88;;;29.60;99.90;;;;;;5033214;28;20235;-81
2023/06/22 09:24:49;;;;;;;2.47;2.13;;;29.70;99.90;;;;;;5033154;28;20204;-81
2023/06/22 09:27:16;;;;;;;1.70;1.52;;;29.60;99.90;;;;;;5032820;28;20266;-81
2023/06/22 09:29:43;;;;;;;4.03;1.77;;;29.50;99.90;;;;;;5032784;28;20203;-81
2023/06/22 09:32:11;;;;;;;4.53;2.40;;;29.60;99.90;;;;;;5033151;28;20218;-81
2023/06/22 09:34:37;;;;;;;2.75;1.73;;;29.70;99.90;;;;;;5032795;28;20587;-81
2023/06/22 09:37:05;;;;;;;2.95;1.70;;;29.70;99.90;;;;;;5032690;28;20230;-81
2023/06/22 09:39:31;;;;;;;3.05;2.30;;;29.70;99.90;;;;;;5033163;28;20192;-83
2023/06/22 09:42:00;;;;;;;9.63;2.78;;;29.80;99.90;;;;;;5033028;28;20239;-83
2023/06/22 09:44:27;;;;;;;3.63;2.17;;;29.90;99.90;;;;;;5032993;28;20215;-81
2023/06/22 09:46:54;;;;;;;3.08;2.55;;;29.70;99.90;;;;;;5033329;28;20219;-79
2023/06/22 09:49:22;;;;;;;1.50;1.40;;;29.70;99.90;;;;;;5036934;28;20211;-81
2023/06/22 09:51:49;;;;;;;4.20;1.63;;;29.70;99.90;;;;;;5036806;28;20218;-81
2023/06/22 09:54:16;;;;;;;3.08;2.08;;;29.90;99.90;;;;;;5036413;28;20693;-80
2023/06/22 09:56:43;;;;;;;2.05;1.80;;;30.00;99.90;;;;;;5036241;28;20223;-81
2023/06/22 09:59:09;;;;;;;1.80;1.70;;;29.90;99.90;;;;;;5036672;28;20223;-81
2023/06/22 10:01:36;;;;;;;6.47;1.52;;;29.80;99.90;;;;;;5036644;28;20206;-81
2023/06/22 10:04:03;;;;;;;2.67;1.98;;;29.70;99.90;;;;;;5036631;28;20201;-80
2023/06/22 10:06:31;;;;;;;2.50;2.28;;;29.60;99.90;;;;;;5036519;28;20214;-80
2023/06/22 10:08:58;;;;;;;2.45;2.13;;;29.60;99.90;;;;;;5036968;28;20231;-81
2023/06/22 10:11:29;;;;;;;6.20;3.00;;;29.60;99.90;;;;;;5036117;28;20595;-81
2023/06/22 10:13:55;;;;;;;2.83;2.08;;;29.70;99.90;;;;;;5036467;28;20203;-81
2023/06/22 10:16:22;;;;;;;2.28;2.08;;;29.70;99.90;;;;;;5036246;28;20231;-81
2023/06/22 10:18:49;;;;;;;2.97;2.20;;;29.80;99.90;;;;;;5035953;28;20229;-80
2023/06/22 10:21:16;;;;;;;3.72;2.83;;;29.90;99.90;;;;;;5036281;28;20290;-82
2023/06/22 10:23:44;;;;;;;4.63;2.47;;;29.90;99.90;;;;;;5036178;28;20211;-80
2023/06/22 10:26:10;;;;;;;2.22;1.90;;;30.00;99.90;;;;;;5036106;28;20226;-80
2023/06/22 10:28:37;;;;;;;2.53;2.05;;;30.20;99.90;;;;;;5035622;28;20255;-81
2023/06/22 10:31:04;;;;;;;3.90;2.20;;;30.10;99.90;;;;;;5035834;28;20201;-80
2023/06/22 10:33:30;;;;;;;3.08;2.22;;;30.20;99.90;;;;;;5036014;28;20213;-81
2023/06/22 10:35:57;;;;;;;2.13;1.98;;;30.30;99.90;;;;;;5035946;28;20223;-81
2023/06/22 10:38:24;;;;;;;2.80;1.90;;;30.50;99.90;;;;;;5035935;28;20227;-81
2023/06/22 10:40:52;;;;;;;5.28;2.03;;;30.60;99.90;;;;;;5035588;28;20207;-81
2023/06/22 10:43:19;;;;;;;4.47;1.90;;;30.60;99.90;;;;;;5035851;28;20210;-79
2023/06/22 10:45:46;;;;;;;9.50;2.20;;;30.40;99.90;;;;;;5035867;28;20200;-80
2023/06/22 10:48:13;;;;;;;2.58;2.15;;;30.20;99.90;;;;;;5035610;28;20565;-81
2023/06/22 10:50:39;;;;;;;2.17;2.08;;;30.20;99.90;;;;;;5035440;28;20705;-80
2023/06/22 10:53:06;;;;;;;4.93;2.55;;;30.20;99.90;;;;;;5035738;28;20191;-80
2023/06/22 10:55:33;;;;;;;2.08;1.90;;;30.20;99.90;;;;;;5035455;28;20225;-80
2023/06/22 10:58:01;;;;;;;3.20;2.58;;;30.10;99.90;;;;;;5035392;28;20246;-80
2023/06/22 11:00:28;;;;;;;3.50;2.33;;;30.00;99.90;;;;;;5035219;28;20676;-81
2023/06/22 11:02:55;;;;;;;2.28;2.08;;;30.00;99.90;;;;;;5035504;28;20203;-80
2023/06/22 11:05:21;;;;;;;2.80;1.95;;;30.00;99.90;;;;;;5035452;28;20246;-80
2023/06/22 11:07:49;;;;;;;3.72;2.25;;;30.00;99.90;;;;;;5035056;28;20738;-80
2023/06/22 11:10:16;;;;;;;1.75;1.65;;;29.90;99.90;;;;;;5035124;28;20294;-80
2023/06/22 11:12:43;;;;;;;2.58;2.38;;;29.80;99.90;;;;;;5035035;28;20711;-81
2023/06/22 11:15:11;;;;;;;1.80;1.70;;;29.90;99.90;;;;;;5035170;28;20211;-80
2023/06/22 11:17:38;;;;;;;2.40;2.20;;;29.90;99.90;;;;;;5035148;28;20233;-80
2023/06/22 11:20:10;;;;;;;2.80;2.10;;;29.80;99.90;;;;;;5034929;28;20192;-80
2023/06/22 11:22:37;;;;;;;5.53;1.63;;;29.70;99.90;;;;;;5035212;28;20196;-80
2023/06/22 11:25:04;;;;;;;2.88;2.03;;;29.60;99.90;;;;;;5034778;28;20199;-80
2023/06/22 11:27:31;;;;;;;2.08;1.80;;;29.60;99.90;;;;;;5034686;28;20252;-80
2023/06/22 11:29:58;;;;;;;5.72;2.67;;;29.70;99.90;;;;;;5035654;28;20207;-80
2023/06/22 11:32:27;;;;;;;3.92;2.30;;;29.80;99.90;;;;;;5034788;28;20548;-80
2023/06/22 11:34:53;;;;;;;2.38;1.90;;;29.90;99.90;;;;;;5034900;28;20230;-80
2023/06/22 11:37:20;;;;;;;2.67;2.15;;;29.90;99.90;;;;;;5034410;28;20703;-80
2023/06/22 11:39:47;;;;;;;1.52;1.42;;;29.90;99.90;;;;;;5034811;28;20207;-80
2023/06/22 11:42:14;;;;;;;1.77;1.67;;;30.00;99.90;;;;;;5034427;28;20203;-79
2023/06/22 11:44:40;;;;;;;6.25;2.28;;;29.90;99.90;;;;;;5034733;28;20222;-80
2023/06/22 11:47:07;;;;;;;3.17;2.03;;;29.90;99.90;;;;;;5034285;28;20726;-79
2023/06/22 11:49:35;;;;;;;1.65;1.55;;;29.70;99.90;;;;;;5034631;28;20208;-80
2023/06/22 11:52:02;;;;;;;1.98;1.52;;;29.60;99.90;;;;;;5034541;28;20200;-80
2023/06/22 11:54:29;;;;;;;5.13;2.17;;;29.50;99.90;;;;;;5034498;28;20215;-80
2023/06/22 11:56:56;;;;;;;2.40;2.20;;;29.60;99.90;;;;;;5034018;28;20731;-80
2023/06/22 11:59:22;;;;;;;2.40;1.90;;;29.40;99.90;;;;;;5034418;28;20211;-79
2023/06/22 12:01:50;;;;;;;5.35;2.60;;;29.30;99.90;;;;;;5034359;28;20207;-80
2023/06/22 12:04:17;;;;;;;2.70;2.47;;;29.30;99.90;;;;;;5034358;28;20229;-80
2023/06/22 12:06:46;;;;;;;4.95;2.67;;;29.30;99.90;;;;;;5034221;28;20199;-79
2023/06/22 12:09:13;;;;;;;2.33;1.98;;;29.10;99.90;;;;;;5034179;28;20205;-80
2023/06/22 12:11:40;;;;;;;2.22;2.10;;;29.10;99.90;;;;;;5033458;28;20694;-80
2023/06/22 12:14:07;;;;;;;5.22;2.40;;;29.10;99.90;;;;;;5034123;28;20216;-80
2023/06/22 12:16:34;;;;;;;2.13;2.03;;;29.20;99.90;;;;;;5033971;28;20223;-79
2023/06/22 12:19:00;;;;;;;3.83;1.90;;;29.20;99.90;;;;;;5034093;28;20214;-79
2023/06/22 12:21:28;;;;;;;3.75;2.45;;;29.30;99.90;;;;;;5034080;28;20198;-79
2023/06/22 12:23:56;;;;;;;2.38;2.17;;;29.30;99.90;;;;;;5034077;28;20218;-79
2023/06/22 12:26:23;;;;;;;6.82;2.42;;;29.20;99.90;;;;;;5033601;28;20570;-79
2023/06/22 12:28:50;;;;;;;3.50;2.70;;;29.10;99.90;;;;;;5033431;28;20254;-79
2023/06/22 12:31:17;;;;;;;2.92;2.65;;;28.90;99.90;;;;;;5033570;28;20593;-80
2023/06/22 12:33:43;;;;;;;5.55;2.60;;;28.90;99.90;;;;;;5033511;28;20210;-81
2023/06/22 12:36:10;;;;;;;4.07;2.33;;;28.80;99.90;;;;;;5033661;28;20234;-82
2023/06/22 12:38:37;;;;;;;4.22;2.80;;;28.80;99.90;;;;;;5033348;28;20703;-80
2023/06/22 12:41:05;;;;;;;3.15;2.53;;;28.80;99.90;;;;;;5033966;28;20204;-80
2023/06/22 12:43:31;;;;;;;4.20;2.92;;;28.80;99.90;;;;;;5033640;28;20210;-79
2023/06/22 12:45:58;;;;;;;3.15;2.85;;;28.80;99.90;;;;;;5033394;28;20209;-79